Time;durP1;ratioP1;P1;durP2;ratioP2;P2;SDS_P1;SDS_P2;PMS_P1;PMS_P2;Temp;Humidity;BMP_temperature;BMP_pressure;BME280_temperature;BME280_humidity;BME280_pressure;Samples;Min_cycle;Max_cycle;Signal;HPM_P1;HPM_P2
2021/06/26 00:02:26;;;;;;;;;;;;;;;26.38;59.15;100536.08;1767967;79;21124;-64
2021/06/26 00:04:55;;;;;;;;;;;;;;;26.36;59.22;100534.22;1771846;79;20416;-64
2021/06/26 00:07:26;;;;;;;;;;;;;;;26.35;59.26;100532.02;1766809;80;20138;-64
2021/06/26 00:09:55;;;;;;;;;;;;;;;26.32;59.30;100524.97;1770264;79;20165;-64
2021/06/26 00:12:23;;;;;;;;;;;;;;;26.29;59.37;100519.54;1769474;79;20143;-65
2021/06/26 00:14:53;;;;;;;;;;;;;;;26.28;59.42;100509.55;1765227;80;20265;-65
2021/06/26 00:17:22;;;;;;;;;;;;;;;26.26;59.46;100506.33;1741327;79;20134;-65
2021/06/26 00:19:49;;;;;;;;;;;;;;;26.24;59.54;100487.75;1772752;79;20211;-65
2021/06/26 00:22:20;;;;;;;;;;;;;;;26.24;59.59;100478.56;1770262;79;20499;-65
2021/06/26 00:24:48;;;;;;;;;;;;;;;26.22;59.64;100474.77;1774770;79;20107;-65
2021/06/26 00:27:17;;;;;;;;;;;;;;;26.21;59.68;100473.14;1764394;79;21157;-65
2021/06/26 00:29:45;;;;;;;;;;;;;;;26.20;59.75;100456.19;1761300;79;20200;-65
2021/06/26 00:32:12;;;;;;;;;;;;;;;26.19;59.80;100434.20;1764350;79;20202;-64
2021/06/26 00:34:40;;;;;;;;;;;;;;;26.18;59.83;100418.05;1761437;79;20212;-64
2021/06/26 00:37:07;;;;;;;;;;;;;;;26.17;59.89;100396.13;1757279;80;20218;-65
2021/06/26 00:39:36;;;;;;;;;;;;;;;26.14;59.96;100373.95;1766526;79;22311;-65
2021/06/26 00:42:03;;;;;;;;;;;;;;;26.15;60.00;100378.36;1756170;80;20130;-65
2021/06/26 00:44:31;;;;;;;;;;;;;;;26.13;60.06;100368.17;1762922;80;20185;-65
2021/06/26 00:47:01;;;;;;;;;;;;;;;26.13;60.10;100324.14;1763389;80;20135;-65
2021/06/26 00:49:28;;;;;;;;;;;;;;;26.12;60.14;100289.88;1765199;79;20135;-65
2021/06/26 00:51:55;;;;;;;;;;;;;;;26.12;60.20;100276.52;1767386;79;21081;-64
2021/06/26 00:54:23;;;;;;;;;;;;;;;26.12;60.24;100273.73;1765437;79;21096;-64
2021/06/26 00:56:51;;;;;;;;;;;;;;;26.11;60.28;100262.35;1746914;80;20147;-65
2021/06/26 00:59:18;;;;;;;;;;;;;;;26.13;60.30;100246.08;1766405;79;20141;-65
2021/06/26 01:01:44;;;;;;;;;;;;;;;26.14;60.35;100216.42;1760513;79;20175;-65
2021/06/26 01:04:11;;;;;;;;;;;;;;;26.17;60.42;100193.39;1766632;79;21428;-64
2021/06/26 01:06:37;;;;;;;;;;;;;;;26.22;60.51;100188.13;1735140;81;20206;-65
2021/06/26 01:09:03;;;;;;;;;;;;;;;26.25;60.59;100178.43;1731316;81;20184;-64
2021/06/26 01:11:30;;;;;;;;;;;;;;;26.30;60.62;100187.08;1734528;81;20262;-65
2021/06/26 01:13:57;;;;;;;;;;;;;;;26.35;60.68;100207.08;1738991;81;20461;-64
2021/06/26 01:16:25;;;;;;;;;;;;;;;26.41;60.71;100208.98;1737054;81;21101;-65
2021/06/26 01:18:51;;;;;;;;;;;;;;;26.47;60.71;100198.33;1769079;80;20741;-65
2021/06/26 01:21:17;;;;;;;;;;;;;;;26.52;60.72;100183.46;1763941;79;20218;-64
2021/06/26 01:23:49;;;;;;;;;;;;;;;26.57;60.70;100172.58;1734244;82;20419;-64
2021/06/26 01:26:14;;;;;;;;;;;;;;;26.62;60.71;100172.27;1730578;82;20140;-64
2021/06/26 01:28:40;;;;;;;;;;;;;;;26.64;60.65;100168.53;1710983;82;21188;-64
2021/06/26 01:31:07;;;;;;;;;;;;;;;26.66;60.61;100160.58;1731285;82;20406;-64
2021/06/26 01:33:33;;;;;;;;;;;;;;;26.66;60.56;100154.41;1728241;81;20217;-64
2021/06/26 01:36:00;;;;;;;;;;;;;;;26.66;60.51;100159.99;1737504;81;20262;-64
2021/06/26 01:38:26;;;;;;;;;;;;;;;26.65;60.49;100165.97;1738203;82;20139;-65
2021/06/26 01:40:52;;;;;;;;;;;;;;;26.64;60.48;100183.88;1716469;82;21411;-64
2021/06/26 01:43:19;;;;;;;;;;;;;;;26.62;60.48;100186.22;1734316;81;20150;-64
2021/06/26 01:45:45;;;;;;;;;;;;;;;26.58;60.51;100210.47;1733352;81;20171;-64
2021/06/26 01:48:12;;;;;;;;;;;;;;;26.55;60.52;100207.85;1728882;81;20165;-65
2021/06/26 01:50:38;;;;;;;;;;;;;;;26.53;60.56;100230.30;1737086;81;20174;-64
2021/06/26 01:53:04;;;;;;;;;;;;;;;26.51;60.58;100250.81;1731293;81;21077;-64
2021/06/26 01:55:31;;;;;;;;;;;;;;;26.48;60.63;100250.16;1733412;82;20436;-64
2021/06/26 01:57:58;;;;;;;;;;;;;;;26.45;60.67;100242.52;1735843;82;20217;-64
2021/06/26 02:00:24;;;;;;;;;;;;;;;26.42;60.69;100227.92;1736847;81;20127;-64
2021/06/26 02:02:51;;;;;;;;;;;;;;;26.40;60.75;100220.50;1734644;81;20158;-65
2021/06/26 02:05:18;;;;;;;;;;;;;;;26.39;60.79;100232.86;1732273;81;21969;-64
2021/06/26 02:07:46;;;;;;;;;;;;;;;26.35;60.86;100249.53;1728784;81;20225;-64
2021/06/26 02:10:13;;;;;;;;;;;;;;;26.33;60.89;100281.97;1734659;82;20190;-64
2021/06/26 02:12:39;;;;;;;;;;;;;;;26.31;60.97;100407.59;1738396;81;20216;-64
2021/06/26 02:15:06;;;;;;;;;;;;;;;26.29;61.01;100426.70;1732172;82;20419;-64
2021/06/26 02:17:32;;;;;;;;;;;;;;;26.28;61.06;100381.27;1735439;81;21113;-64
2021/06/26 02:19:58;;;;;;;;;;;;;;;26.26;61.12;100453.92;1730024;82;20129;-64
2021/06/26 02:22:24;;;;;;;;;;;;;;;26.23;61.15;100396.08;1728530;81;20382;-64
2021/06/26 02:24:50;;;;;;;;;;;;;;;26.22;61.19;100446.88;1730697;82;20373;-65
2021/06/26 02:27:16;;;;;;;;;;;;;;;26.20;61.25;100456.19;1736092;81;20132;-64
2021/06/26 02:29:42;;;;;;;;;;;;;;;26.21;61.31;100466.75;1730983;81;21145;-64
2021/06/26 02:32:08;;;;;;;;;;;;;;;26.19;61.37;100477.42;1717518;81;20159;-64
2021/06/26 02:34:34;;;;;;;;;;;;;;;26.18;61.41;100473.03;1719926;82;20286;-64
2021/06/26 02:37:02;;;;;;;;;;;;;;;26.17;61.43;100473.63;1721319;82;20173;-64
2021/06/26 02:39:28;;;;;;;;;;;;;;;26.19;61.47;100485.20;1718342;82;20134;-64
2021/06/26 02:41:53;;;;;;;;;;;;;;;26.21;61.52;100491.27;1716622;82;21221;-64
2021/06/26 02:44:19;;;;;;;;;;;;;;;26.24;61.61;100486.35;1769024;79;20119;-64
2021/06/26 02:46:45;;;;;;;;;;;;;;;26.26;61.68;100485.42;1766782;79;20170;-65
2021/06/26 02:49:11;;;;;;;;;;;;;;;26.31;61.74;100488.48;1771906;80;20153;-64
2021/06/26 02:51:37;;;;;;;;;;;;;;;26.35;61.79;100468.48;1770082;79;20169;-64
2021/06/26 02:54:04;;;;;;;;;;;;;;;26.41;61.81;100464.21;1769496;79;23322;-64
2021/06/26 02:56:29;;;;;;;;;;;;;;;26.46;61.83;100447.19;1739594;80;20144;-64
2021/06/26 02:58:55;;;;;;;;;;;;;;;26.52;61.82;100446.33;1739649;81;20748;-65
2021/06/26 03:01:21;;;;;;;;;;;;;;;26.57;61.82;100441.23;1740599;81;20551;-65
2021/06/26 03:03:47;;;;;;;;;;;;;;;26.63;61.82;100452.92;1738324;80;20162;-64
2021/06/26 03:06:13;;;;;;;;;;;;;;;26.66;61.80;100454.97;1764377;79;21189;-64
2021/06/26 03:08:39;;;;;;;;;;;;;;;26.68;61.75;100450.66;1774554;79;20416;-64
2021/06/26 03:11:04;;;;;;;;;;;;;;;26.69;61.69;100447.28;1772940;80;20231;-64
2021/06/26 03:13:30;;;;;;;;;;;;;;;26.70;61.64;100444.10;1775645;80;20669;-64
2021/06/26 03:15:56;;;;;;;;;;;;;;;26.69;61.58;100446.67;1735731;81;20793;-64
2021/06/26 03:18:22;;;;;;;;;;;;;;;26.68;61.55;100465.19;1731880;82;23285;-64
2021/06/26 03:20:48;;;;;;;;;;;;;;;26.66;61.54;100472.52;1738428;80;20169;-64
2021/06/26 03:23:14;;;;;;;;;;;;;;;26.64;61.55;100474.89;1742993;80;20189;-64
2021/06/26 03:25:40;;;;;;;;;;;;;;;26.62;61.56;100493.97;1756375;80;20258;-64
2021/06/26 03:28:05;;;;;;;;;;;;;;;26.59;61.55;100500.88;1764093;79;21612;-64
2021/06/26 03:30:31;;;;;;;;;;;;;;;26.57;61.57;100508.78;1766992;79;23239;-64
2021/06/26 03:32:57;;;;;;;;;;;;;;;26.53;61.60;100504.53;1765497;79;20132;-64
2021/06/26 03:35:24;;;;;;;;;;;;;;;26.51;61.61;100490.15;1766062;79;20150;-64
2021/06/26 03:37:50;;;;;;;;;;;;;;;26.47;61.65;100487.87;1767193;79;20193;-64
2021/06/26 03:40:16;;;;;;;;;;;;;;;26.45;61.68;100490.78;1734559;81;20455;-64
2021/06/26 03:42:42;;;;;;;;;;;;;;;26.43;61.72;100504.30;1731326;81;21079;-64
2021/06/26 03:45:09;;;;;;;;;;;;;;;26.40;61.78;100505.83;1722924;82;21686;-64
2021/06/26 03:47:35;;;;;;;;;;;;;;;26.38;61.82;100511.56;1729307;81;20386;-64
2021/06/26 03:50:01;;;;;;;;;;;;;;;26.35;61.87;100519.47;1710749;82;20676;-64
2021/06/26 03:52:27;;;;;;;;;;;;;;;26.33;61.92;100524.62;1768247;79;20208;-64
2021/06/26 03:54:53;;;;;;;;;;;;;;;26.31;61.95;100519.97;1771778;79;21036;-64
2021/06/26 03:57:19;;;;;;;;;;;;;;;26.30;61.99;100521.75;1764237;79;20784;-64
2021/06/26 03:59:46;;;;;;;;;;;;;;;26.27;62.04;100526.05;1767605;79;20165;-64
2021/06/26 04:02:12;;;;;;;;;;;;;;;26.26;62.08;100531.44;1764467;79;20246;-64
2021/06/26 04:04:38;;;;;;;;;;;;;;;26.25;62.13;100525.63;1762727;80;20700;-64
2021/06/26 04:07:05;;;;;;;;;;;;;;;26.22;62.15;100524.96;1763616;79;21805;-64
2021/06/26 04:09:30;;;;;;;;;;;;;;;26.23;62.20;100541.09;1767256;79;20204;-64
2021/06/26 04:11:56;;;;;;;;;;;;;;;26.24;62.22;100544.91;1765395;80;20179;-64
2021/06/26 04:14:22;;;;;;;;;;;;;;;26.26;62.27;100529.22;1767305;79;20767;-65
2021/06/26 04:16:48;;;;;;;;;;;;;;;26.28;62.33;100519.31;1770069;79;20141;-64
2021/06/26 04:19:14;;;;;;;;;;;;;;;26.32;62.40;100501.27;1769232;79;21184;-64
2021/06/26 04:21:42;;;;;;;;;;;;;;;26.35;62.45;100495.76;1771305;79;20173;-65
2021/06/26 04:24:09;;;;;;;;;;;;;;;26.41;62.50;100501.05;1732341;81;20145;-64
2021/06/26 04:26:35;;;;;;;;;;;;;;;26.45;62.52;100500.55;1735952;81;20728;-64
2021/06/26 04:29:00;;;;;;;;;;;;;;;26.50;62.54;100499.69;1738164;81;20182;-64
2021/06/26 04:31:27;;;;;;;;;;;;;;;26.56;62.54;100494.64;1734094;81;21086;-64
2021/06/26 04:33:53;;;;;;;;;;;;;;;26.62;62.53;100495.95;1728570;81;20176;-64
2021/06/26 04:36:19;;;;;;;;;;;;;;;26.66;62.50;100502.41;1736385;81;20427;-64
2021/06/26 04:38:45;;;;;;;;;;;;;;;26.69;62.46;100491.94;1738030;81;20226;-64
2021/06/26 04:41:12;;;;;;;;;;;;;;;26.71;62.43;100478.41;1740876;81;20162;-64
2021/06/26 04:43:38;;;;;;;;;;;;;;;26.73;62.38;100488.63;1736667;81;21151;-64
2021/06/26 04:46:07;;;;;;;;;;;;;;;26.74;62.33;100479.05;1737009;81;20441;-64
2021/06/26 04:48:33;;;;;;;;;;;;;;;26.74;62.27;100480.45;1714278;82;20176;-64
2021/06/26 04:50:59;;;;;;;;;;;;;;;26.73;62.24;100487.23;1694628;82;20222;-64
2021/06/26 04:53:25;;;;;;;;;;;;;;;26.71;62.19;100470.03;1719904;82;20196;-64
2021/06/26 04:55:51;;;;;;;;;;;;;;;26.70;62.20;100473.98;1717099;82;21173;-64
2021/06/26 04:58:21;;;;;;;;;;;;;;;26.66;62.17;100473.92;1721598;82;20375;-64
2021/06/26 05:00:50;;;;;;;;;;;;;;;26.64;62.21;100474.08;1722328;82;20164;-63
2021/06/26 05:03:17;;;;;;;;;;;;;;;26.61;62.21;100471.41;1721651;82;20099;-62
2021/06/26 05:05:43;;;;;;;;;;;;;;;26.58;62.23;100478.32;1711636;82;20246;-62
2021/06/26 05:08:11;;;;;;;;;;;;;;;26.54;62.23;100474.65;1721013;82;21221;-62
2021/06/26 05:10:37;;;;;;;;;;;;;;;26.52;62.27;100479.80;1719577;82;20275;-62
2021/06/26 05:13:04;;;;;;;;;;;;;;;26.50;62.30;100477.95;1717357;82;20174;-62
2021/06/26 05:15:30;;;;;;;;;;;;;;;26.46;62.34;100484.04;1722806;82;20445;-62
2021/06/26 05:17:56;;;;;;;;;;;;;;;26.44;62.38;100491.98;1719423;82;20159;-62
2021/06/26 05:20:22;;;;;;;;;;;;;;;26.41;62.41;100480.95;1719939;82;21161;-62
2021/06/26 05:22:48;;;;;;;;;;;;;;;26.39;62.46;100493.66;1719200;82;20197;-62
2021/06/26 05:25:14;;;;;;;;;;;;;;;26.36;62.49;100490.41;1735832;81;21058;-62
2021/06/26 05:27:41;;;;;;;;;;;;;;;26.35;62.54;100487.39;1725304;81;20149;-62
2021/06/26 05:30:07;;;;;;;;;;;;;;;26.33;62.58;100486.16;1735308;81;20157;-62
2021/06/26 05:32:33;;;;;;;;;;;;;;;26.31;62.61;100493.48;1727523;81;21157;-62
2021/06/26 05:34:59;;;;;;;;;;;;;;;26.30;62.64;100491.07;1728166;81;21237;-62
2021/06/26 05:37:25;;;;;;;;;;;;;;;26.29;62.67;100493.63;1732736;81;20213;-62
2021/06/26 05:39:51;;;;;;;;;;;;;;;26.29;62.71;100501.41;1733186;81;20735;-62
2021/06/26 05:42:17;;;;;;;;;;;;;;;26.29;62.74;100502.81;1774317;79;20204;-62
2021/06/26 05:44:43;;;;;;;;;;;;;;;26.32;62.77;100513.81;1766437;79;21166;-62
2021/06/26 05:47:09;;;;;;;;;;;;;;;26.36;62.85;100525.27;1775189;79;20301;-62
2021/06/26 05:49:35;;;;;;;;;;;;;;;26.39;62.91;100515.97;1745245;81;20253;-62
2021/06/26 05:52:00;;;;;;;;;;;;;;;26.44;62.97;100504.53;1704078;82;20522;-62
2021/06/26 05:54:26;;;;;;;;;;;;;;;26.47;62.98;100500.42;1774271;79;20268;-62
2021/06/26 05:56:52;;;;;;;;;;;;;;;26.54;62.98;100503.94;1769350;79;21127;-62
2021/06/26 05:59:18;;;;;;;;;;;;;;;26.59;63.02;100502.27;1769424;79;20191;-62
2021/06/26 06:01:44;;;;;;;;;;;;;;;26.64;62.98;100493.61;1773838;79;20711;-62
2021/06/26 06:04:10;;;;;;;;;;;;;;;26.68;62.98;100492.52;1768405;79;20686;-62
2021/06/26 06:06:36;;;;;;;;;;;;;;;26.72;62.94;100485.02;1774099;80;20186;-62
2021/06/26 06:09:05;;;;;;;;;;;;;;;26.76;62.93;100478.12;1737708;81;21952;-62
2021/06/26 06:11:31;;;;;;;;;;;;;;;26.78;62.86;100479.35;1778192;79;20161;-62
2021/06/26 06:13:57;;;;;;;;;;;;;;;26.80;62.79;100488.77;1770740;79;20576;-62
2021/06/26 06:16:26;;;;;;;;;;;;;;;26.80;62.76;100492.37;1773304;80;20606;-62
2021/06/26 06:18:52;;;;;;;;;;;;;;;26.80;62.71;100497.14;1772630;79;20144;-62
2021/06/26 06:21:18;;;;;;;;;;;;;;;26.80;62.65;100492.37;1773327;79;21048;-62
2021/06/26 06:23:44;;;;;;;;;;;;;;;26.78;62.64;100487.72;1760582;79;20226;-62
2021/06/26 06:26:10;;;;;;;;;;;;;;;26.76;62.60;100479.52;1746808;80;20727;-61
2021/06/26 06:28:36;;;;;;;;;;;;;;;26.74;62.58;100470.09;1743573;80;20330;-62
2021/06/26 06:31:02;;;;;;;;;;;;;;;26.71;62.60;100462.47;1737930;81;20264;-62
2021/06/26 06:33:28;;;;;;;;;;;;;;;26.71;62.62;100460.27;1746782;80;21117;-62
2021/06/26 06:35:54;;;;;;;;;;;;;;;26.69;62.64;100452.86;1734554;81;20222;-62
2021/06/26 06:38:20;;;;;;;;;;;;;;;26.66;62.67;100454.39;1723034;82;20724;-62
2021/06/26 06:40:46;;;;;;;;;;;;;;;26.64;62.64;100448.97;1729461;81;20197;-62
2021/06/26 06:43:12;;;;;;;;;;;;;;;26.62;62.58;100458.28;1726986;81;20728;-62
2021/06/26 06:45:38;;;;;;;;;;;;;;;26.59;62.56;100449.25;1723296;81;21879;-62
2021/06/26 06:48:05;;;;;;;;;;;;;;;26.55;62.56;100436.63;1732440;81;20453;-62
2021/06/26 06:50:31;;;;;;;;;;;;;;;26.53;62.54;100438.96;1731758;81;20409;-62
2021/06/26 06:53:01;;;;;;;;;;;;;;;26.51;62.53;100435.75;1726875;81;20208;-62
2021/06/26 06:55:25;;;;;;;;;;;;;;;26.49;62.54;100429.71;1728420;81;20254;-62
2021/06/26 06:57:51;;;;;;;;;;;;;;;26.47;62.49;100430.68;1732454;81;21159;-62
2021/06/26 07:00:17;;;;;;;;;;;;;;;26.46;62.50;100433.24;1727888;81;20428;-62
2021/06/26 07:02:43;;;;;;;;;;;;;;;26.44;62.47;100424.42;1729243;81;20150;-62
2021/06/26 07:05:10;;;;;;;;;;;;;;;26.44;62.47;100416.66;1731358;81;20703;-62
2021/06/26 07:07:36;;;;;;;;;;;;;;;26.44;62.47;100415.27;1730284;81;20140;-62
2021/06/26 07:10:04;;;;;;;;;;;;;;;26.42;62.45;100416.20;1731071;82;21062;-62
2021/06/26 07:12:30;;;;;;;;;;;;;;;26.42;62.42;100423.19;1731475;81;20254;-62
2021/06/26 07:14:56;;;;;;;;;;;;;;;26.42;62.43;100425.97;1728882;81;20245;-62
2021/06/26 07:17:21;;;;;;;;;;;;;;;26.41;62.41;100424.34;1731548;81;20178;-62
2021/06/26 07:19:47;;;;;;;;;;;;;;;26.41;62.40;100425.16;1733107;81;20886;-62
2021/06/26 07:22:13;;;;;;;;;;;;;;;26.41;62.37;100422.95;1731024;81;21958;-62
2021/06/26 07:24:39;;;;;;;;;;;;;;;26.41;62.38;100427.14;1752331;80;21588;-62
2021/06/26 07:27:06;;;;;;;;;;;;;;;26.41;62.36;100432.72;1763961;80;20186;-61
2021/06/26 07:29:32;;;;;;;;;;;;;;;26.42;62.34;100423.19;1766293;80;20195;-61
2021/06/26 07:31:58;;;;;;;;;;;;;;;26.44;62.33;100426.43;1770859;80;20181;-62
2021/06/26 07:34:24;;;;;;;;;;;;;;;26.47;62.36;100427.89;1764506;80;21221;-62
2021/06/26 07:36:50;;;;;;;;;;;;;;;26.50;62.39;100415.18;1760951;80;21730;-63
2021/06/26 07:39:16;;;;;;;;;;;;;;;26.54;62.40;100417.45;1768980;80;20211;-63
2021/06/26 07:41:42;;;;;;;;;;;;;;;26.59;62.41;100422.16;1758861;80;20222;-61
2021/06/26 07:44:08;;;;;;;;;;;;;;;26.63;62.42;100411.06;1757622;80;20616;-62
2021/06/26 07:46:34;;;;;;;;;;;;;;;26.69;62.40;100401.23;1756178;80;21138;-63
2021/06/26 07:49:00;;;;;;;;;;;;;;;26.74;62.36;100400.91;1761621;79;20223;-63
2021/06/26 07:51:25;;;;;;;;;;;;;;;26.79;62.32;100403.41;1755600;80;20207;-63
2021/06/26 07:53:51;;;;;;;;;;;;;;;26.84;62.26;100398.92;1756282;80;21016;-62
2021/06/26 07:56:17;;;;;;;;;;;;;;;26.88;62.17;100394.25;1757232;80;20169;-63
2021/06/26 07:58:43;;;;;;;;;;;;;;;26.91;62.09;100392.10;1751695;80;21142;-62
2021/06/26 08:01:09;;;;;;;;;;;;;;;26.93;62.00;100384.17;1755165;80;20161;-63
2021/06/26 08:03:35;;;;;;;;;;;;;;;26.95;61.92;100385.18;1754175;80;20189;-63
2021/06/26 08:06:01;;;;;;;;;;;;;;;26.96;61.86;100384.83;1753964;80;20254;-62
2021/06/26 08:08:27;;;;;;;;;;;;;;;26.95;61.79;100380.41;1759323;80;20192;-64
2021/06/26 08:10:53;;;;;;;;;;;;;;;26.95;61.71;100380.41;1761273;80;21584;-63
2021/06/26 08:13:19;;;;;;;;;;;;;;;26.94;61.62;100380.22;1755626;80;20199;-63
2021/06/26 08:15:46;;;;;;;;;;;;;;;26.92;61.54;100373.38;1760765;80;20163;-63
2021/06/26 08:18:12;;;;;;;;;;;;;;;26.91;61.51;100369.77;1760033;80;20679;-64
2021/06/26 08:20:38;;;;;;;;;;;;;;;26.90;61.49;100372.95;1724038;81;20587;-62
2021/06/26 08:23:04;;;;;;;;;;;;;;;26.87;61.41;100375.06;1717429;82;21917;-63
2021/06/26 08:25:30;;;;;;;;;;;;;;;26.85;61.38;100386.63;1734680;81;20190;-62
2021/06/26 08:27:56;;;;;;;;;;;;;;;26.83;61.36;100386.95;1734458;81;20215;-63
2021/06/26 08:30:22;;;;;;;;;;;;;;;26.80;61.33;100390.48;1733330;81;20240;-64
2021/06/26 08:32:50;;;;;;;;;;;;;;;26.79;61.29;100391.66;1708880;82;20494;-63
2021/06/26 08:35:16;;;;;;;;;;;;;;;26.77;61.29;100387.05;1759013;80;22531;-62
2021/06/26 08:37:45;;;;;;;;;;;;;;;26.74;61.25;100385.56;1756159;80;20185;-63
2021/06/26 08:40:12;;;;;;;;;;;;;;;26.73;61.25;100383.97;1757647;80;20611;-64
2021/06/26 08:42:39;;;;;;;;;;;;;;;26.70;61.24;100392.47;1760746;79;20442;-63
2021/06/26 08:45:07;;;;;;;;;;;;;;;26.69;61.23;100375.50;1762016;80;20262;-63
2021/06/26 08:47:33;;;;;;;;;;;;;;;26.67;61.23;100380.66;1754357;80;21087;-63
2021/06/26 08:49:59;;;;;;;;;;;;;;;26.66;61.25;100376.84;1760327;80;20832;-63
2021/06/26 08:52:24;;;;;;;;;;;;;;;26.64;61.26;100380.02;1759112;81;20198;-64
2021/06/26 08:54:51;;;;;;;;;;;;;;;26.64;61.31;100385.59;1759719;80;20175;-64
2021/06/26 08:57:33;;;;;;;;;;;;;;;26.64;61.32;100389.78;1727495;81;20190;-64
2021/06/26 09:00:00;;;;;;;;;;;;;;;26.64;61.32;100373.04;1730755;81;21342;-64
2021/06/26 09:02:27;;;;;;;;;;;;;;;26.65;61.32;100376.64;1735062;81;20754;-64
2021/06/26 09:04:54;;;;;;;;;;;;;;;26.64;61.32;100382.80;1732352;81;20448;-65
2021/06/26 09:07:32;;;;;;;;;;;;;;;26.64;61.33;100378.63;1732690;81;20146;-65
2021/06/26 09:10:09;;;;;;;;;;;;;;;26.63;61.37;100380.38;1715127;82;20329;-64
2021/06/26 09:12:36;;;;;;;;;;;;;;;26.63;61.39;100387.34;1775207;79;21091;-63
2021/06/26 09:15:03;;;;;;;;;;;;;;;26.63;61.40;100383.16;1762845;80;20470;-63
2021/06/26 09:17:30;;;;;;;;;;;;;;;26.62;61.43;100376.77;1733924;81;21292;-63
2021/06/26 09:20:03;;;;;;;;;;;;;;;26.62;61.43;100373.98;1714937;82;20256;-62
2021/06/26 09:22:39;;;;;;;;;;;;;;;26.62;61.44;100382.94;1714364;82;20454;-63
2021/06/26 09:25:08;;;;;;;;;;;;;;;26.62;61.44;100389.91;1716097;82;21090;-63
2021/06/26 09:27:35;;;;;;;;;;;;;;;26.62;61.46;100387.13;1682119;83;20143;-63
2021/06/26 09:30:01;;;;;;;;;;;;;;;26.63;61.47;100391.53;1707888;82;20197;-64
2021/06/26 09:32:28;;;;;;;;;;;;;;;26.65;61.46;100388.58;1708600;82;20149;-63
2021/06/26 09:34:55;;;;;;;;;;;;;;;26.67;61.51;100386.25;1708378;82;20157;-63
2021/06/26 09:37:28;;;;;;;;;;;;;;;26.69;61.56;100386.66;1756963;79;21069;-63
2021/06/26 09:40:01;;;;;;;;;;;;;;;26.72;61.61;100379.56;1761511;79;20159;-64
2021/06/26 09:42:35;;;;;;;;;;;;;;;26.77;61.66;100376.47;1750864;80;20218;-64
2021/06/26 09:45:05;;;;;;;;;;;;;;;26.82;61.67;100380.33;1763650;79;20172;-64
2021/06/26 09:47:40;;;;;;;;;;;;;;;26.87;61.67;100371.69;1757971;79;20637;-65
2021/06/26 09:50:11;;;;;;;;;;;;;;;26.92;61.68;100365.00;1762860;79;21059;-65
2021/06/26 09:52:46;;;;;;;;;;;;;;;26.96;61.67;100356.91;1768389;80;20135;-65
2021/06/26 09:55:16;;;;;;;;;;;;;;;27.01;61.63;100363.58;1763949;79;20177;-64
2021/06/26 09:57:42;;;;;;;;;;;;;;;27.04;61.61;100359.23;1765791;79;20226;-64
2021/06/26 10:00:09;;;;;;;;;;;;;;;27.07;61.58;100351.52;1767485;80;20301;-65
2021/06/26 10:02:35;;;;;;;;;;;;;;;27.09;61.52;100349.15;1763375;80;21305;-65
2021/06/26 10:05:05;;;;;;;;;;;;;;;27.10;61.51;100352.98;1766462;80;20766;-65
2021/06/26 10:07:31;;;;;;;;;;;;;;;27.12;61.45;100347.81;1760781;79;20190;-64
2021/06/26 10:09:57;;;;;;;;;;;;;;;27.14;61.42;100348.26;1762832;80;20389;-66
2021/06/26 10:12:23;;;;;;;;;;;;;;;27.15;61.39;100344.88;1764163;79;20811;-66
2021/06/26 10:14:49;;;;;;;;;;;;;;;27.15;61.34;100337.89;1732122;82;22019;-66
2021/06/26 10:17:15;;;;;;;;;;;;;;;27.15;61.31;100337.89;1707629;82;20224;-64
2021/06/26 10:19:42;;;;;;;;;;;;;;;27.15;61.30;100335.11;1701465;83;20101;-68
2021/06/26 10:22:09;;;;;;;;;;;;;;;27.14;61.29;100330.69;1704985;83;20221;-68
2021/06/26 10:24:35;;;;;;;;;;;;;;;27.13;61.27;100332.67;1697823;83;20512;-67
2021/06/26 10:27:01;;;;;;;;;;;;;;;27.12;61.27;100326.05;1739401;81;21165;-63
2021/06/26 10:29:30;;;;;;;;;;;;;;;27.11;61.24;100319.69;1742756;80;20452;-65
2021/06/26 10:31:56;;;;;;;;;;;;;;;27.11;61.28;100316.09;1713730;82;20173;-65
2021/06/26 10:34:25;;;;;;;;;;;;;;;27.10;61.25;100325.64;1716455;82;20753;-66
2021/06/26 10:36:52;;;;;;;;;;;;;;;27.09;61.26;100321.23;1724193;81;20138;-66
2021/06/26 10:39:24;;;;;;;;;;;;;;;27.08;61.25;100317.63;1710765;82;21176;-66
2021/06/26 10:42:00;;;;;;;;;;;;;;;27.05;61.24;100311.40;1702670;83;20213;-66
2021/06/26 10:44:26;;;;;;;;;;;;;;;27.01;61.16;100301.34;1723049;82;20140;-66
2021/06/26 10:46:52;;;;;;;;;;;;;;;26.95;61.12;100316.20;1719685;82;20161;-67
2021/06/26 10:49:27;;;;;;;;;;;;;;;26.90;61.12;100310.95;1730565;82;20159;-66
2021/06/26 10:51:53;;;;;;;;;;;;;;;26.85;61.09;100302.88;1720122;82;21932;-66
2021/06/26 10:54:20;;;;;;;;;;;;;;;26.81;61.06;100296.41;1768730;79;20254;-67
2021/06/26 10:56:47;;;;;;;;;;;;;;;26.75;61.01;100295.09;1763418;80;20216;-66
2021/06/26 10:59:18;;;;;;;;;;;;;;;26.72;60.98;100290.25;1770093;80;21123;-66
2021/06/26 11:01:59;;;;;;;;;;;;;;;26.69;60.94;100295.97;1768651;80;20514;-67
2021/06/26 11:04:25;;;;;;;;;;;;;;;26.66;60.89;100287.55;1754484;79;21246;-67
2021/06/26 11:06:57;;;;;;;;;;;;;;;26.63;60.83;100281.31;1754989;81;20426;-67
2021/06/26 11:09:23;;;;;;;;;;;;;;;26.60;60.77;100287.06;1710838;82;20179;-66
2021/06/26 11:11:49;;;;;;;;;;;;;;;26.57;60.71;100286.39;1752256;80;20237;-67
2021/06/26 11:14:24;;;;;;;;;;;;;;;26.55;60.65;100284.57;1783643;80;20185;-66
2021/06/26 11:16:55;;;;;;;;;;;;;;;26.53;60.58;100283.31;1786773;79;21015;-67
2021/06/26 11:19:22;;;;;;;;;;;;;;;26.51;60.50;100282.31;1783536;79;20171;-66
2021/06/26 11:21:51;;;;;;;;;;;;;;;26.49;60.39;100283.25;1770474;79;20192;-67
2021/06/26 11:24:18;;;;;;;;;;;;;;;26.48;60.36;100280.84;1767695;80;20636;-67
2021/06/26 11:26:45;;;;;;;;;;;;;;;26.48;60.27;100276.66;1740873;81;20195;-67
2021/06/26 11:29:24;;;;;;;;;;;;;;;26.48;60.18;100271.09;1773261;79;21240;-67
2021/06/26 11:31:50;;;;;;;;;;;;;;;26.47;60.10;100266.68;1767900;80;20191;-66
2021/06/26 11:34:16;;;;;;;;;;;;;;;26.46;60.01;100270.05;1763345;79;20966;-67
2021/06/26 11:36:43;;;;;;;;;;;;;;;26.46;59.92;100269.24;1771867;79;20176;-67
2021/06/26 11:39:09;;;;;;;;;;;;;;;26.47;59.86;100272.26;1767033;80;20203;-67
2021/06/26 11:41:35;;;;;;;;;;;;;;;26.46;59.79;100262.27;1765014;79;21216;-67
2021/06/26 11:44:03;;;;;;;;;;;;;;;26.46;59.73;100258.08;1760299;79;20731;-67
2021/06/26 11:46:30;;;;;;;;;;;;;;;26.46;59.68;100262.27;1762947;79;20217;-67
2021/06/26 11:48:56;;;;;;;;;;;;;;;26.46;59.58;100258.08;1765293;79;20256;-67
2021/06/26 11:51:22;;;;;;;;;;;;;;;26.45;59.50;100254.48;1731588;81;20733;-67
2021/06/26 11:53:51;;;;;;;;;;;;;;;26.45;59.43;100250.30;1721651;81;21946;-67
2021/06/26 11:56:15;;;;;;;;;;;;;;;26.43;59.33;100248.48;1718524;82;20446;-67
2021/06/26 11:58:43;;;;;;;;;;;;;;;26.42;59.24;100241.29;1717976;82;20180;-67
2021/06/26 12:01:18;;;;;;;;;;;;;;;26.39;59.16;100242.04;1725939;82;20574;-67
2021/06/26 12:03:44;;;;;;;;;;;;;;;26.38;59.09;100246.00;1704291;82;20458;-67
2021/06/26 12:06:13;;;;;;;;;;;;;;;26.38;59.00;100243.79;1716055;82;21936;-67
2021/06/26 12:08:44;;;;;;;;;;;;;;;26.37;58.93;100247.16;1719737;82;20369;-67
2021/06/26 12:11:12;;;;;;;;;;;;;;;26.35;58.83;100247.52;1720771;82;20186;-67
2021/06/26 12:13:41;;;;;;;;;;;;;;;26.34;58.75;100237.56;1719691;82;20782;-67
2021/06/26 12:16:07;;;;;;;;;;;;;;;26.35;58.64;100238.38;1769705;79;20184;-67
2021/06/26 12:18:33;;;;;;;;;;;;;;;26.33;58.55;100242.92;1753068;81;21067;-67
2021/06/26 12:21:03;;;;;;;;;;;;;;;26.34;58.49;100240.94;1735490;81;20187;-67
2021/06/26 12:23:29;;;;;;;;;;;;;;;26.33;58.39;100235.14;1717950;82;20546;-67
2021/06/26 12:25:54;;;;;;;;;;;;;;;26.33;58.29;100241.52;1714987;81;20754;-67
2021/06/26 12:28:22;;;;;;;;;;;;;;;26.32;58.21;100234.33;1716518;82;20516;-67
2021/06/26 12:30:48;;;;;;;;;;;;;;;26.32;58.13;100232.94;1715406;82;21055;-66
2021/06/26 12:33:14;;;;;;;;;;;;;;;26.32;58.01;100230.14;1716161;82;20422;-67
2021/06/26 12:35:41;;;;;;;;;;;;;;;26.32;57.94;100227.36;1714938;82;20182;-67